Rain From: 21-07-2018 02:00 Until: 16:00 warning for: Rain Level: Yellow info button
suomi:
Sadevaroitus: Aamuyöstä alkaen voi sataa rankasti, yli 20 mm tunnissa.

svenska:
Nederbördsvarning: Från och med efternatten kan det förekomma synnerligen riklig nederbörd, mer än 20 mm i timmen.

english:
Heavy rain warning: From the early morning on heavy rain of more than 20 mm per hour can be expected. 

Forest fire From: 20-07-2018 23:00 Until: 21-07-2018 11:00 warning for: Forest fire Level: Yellow info button
suomi:
Metsäpalovaroitus on voimassa.

svenska:
Varning för skogsbrand gäller.

english:
A forest fire warning is in force. 


Thunder radar more information blitzortung!


Löydät sääaseman tiedot myös:

European Weather Network

Finland Weather Exchange

Weather Underground

AWEKAS



Weather Underground säähistoriasivu

Päivittäin yhteenveto Heinäkuu 23, 2017 Yksiköt:  Englantilaiset    Metriset   Molemmat
« Edellinen Päivä
Seuraava Päivä »
Päivittäin Viikoittain Kuukausittain Vuosittain Mukautettu
  Korkea: Matala: Keskiarvo:
Lämpötila: TemperatureC °F 7.6 °F 14.6 °F
Kastepiste: DewpointC °F 6.8 °F 11.5 °F
Kosteus: Humidity % 58 % 83 %
Tuulen nopeus: WindSpeedKMH mph 0.0 mph 0.3 mph
Tuulenpuuska: WindSpeedGustKMH mph - -
Tuuli:- - SSW
Ilmanpaine: PressurehPa in 1016.5 in -
Sade: 1.5 in    
Historical Graphs
 
 
Taulukkotiedot Heinäkuu 23, 2017
Aika Lämpötila Kastepiste Ilmanpaine Tuuli Tuulen nopeus Tuulenpuuska Kosteus Sademäärä (tunneittain)
TemperatureC °F DewpointC °F PressurehPa in Calm     Humidity % HourlyPrecipMM in
00:00 11.1 °F 8.6 °F 1020.2 in Calm     85 % 0.0 in
00:05 10.9 °F 8.6 °F 1020.2 in Calm     86 % 0.0 in
00:10 10.7 °F 8.7 °F 1020.2 in Calm     87 % 0.0 in
00:15 10.6 °F 8.6 °F 1020.2 in Calm     87 % 0.0 in
00:20 10.5 °F 8.4 °F 1020.2 in Calm     87 % 0.0 in
00:25 10.3 °F 8.4 °F 1020.2 in Calm     88 % 0.0 in
00:30 10.2 °F 8.3 °F 1020.2 in Calm     88 % 0.0 in
00:35 10.1 °F 8.4 °F 1020.2 in Calm     89 % 0.0 in
00:40 10.0 °F 8.4 °F 1020.2 in Calm     90 % 0.0 in
00:45 9.9 °F 8.4 °F 1020.2 in Calm     90 % 0.0 in
00:50 9.9 °F 8.3 °F 1020.2 in Calm     90 % 0.0 in
00:55 9.8 °F 8.3 °F 1020.2 in Calm     90 % 0.0 in
01:00 9.8 °F 8.4 °F 1020.2 in Calm     91 % 0.0 in
01:05 9.7 °F 8.3 °F 1020.2 in Calm     91 % 0.0 in
01:10 9.7 °F 8.5 °F 1020.2 in Calm     92 % 0.0 in
01:15 9.7 °F 8.5 °F 1020.2 in Calm     92 % 0.0 in
01:20 9.8 °F 8.6 °F 1020.2 in Calm     92 % 0.0 in
01:25 9.8 °F 8.6 °F 1020.2 in Calm     92 % 0.0 in
01:30 9.8 °F 8.6 °F 1020.2 in Calm     92 % 0.0 in
01:35 9.8 °F 8.6 °F 1020.2 in Calm     92 % 0.0 in
01:40 9.8 °F 8.6 °F 1020.2 in Calm     92 % 0.0 in
01:45 9.8 °F 8.6 °F 1020.2 in Calm     92 % 0.0 in
01:50 9.8 °F 8.6 °F 1020.2 in Calm     92 % 0.0 in
01:55 9.7 °F 8.5 °F 1020.2 in Calm     92 % 0.0 in
02:00 9.7 °F 8.4 °F 1020.2 in Calm     92 % 0.0 in
02:05 9.6 °F 8.3 °F 1020.2 in Calm     92 % 0.0 in
02:10 9.4 °F 8.2 °F 1020.2 in Calm     92 % 0.0 in
02:15 9.3 °F 8.1 °F 1020.2 in Calm     92 % 0.0 in
02:20 9.3 °F 8.2 °F 1020.2 in Calm     93 % 0.0 in
02:25 9.2 °F 8.2 °F 1020.2 in Calm     93 % 0.0 in
02:30 9.2 °F 8.1 °F 1020.2 in Calm     93 % 0.0 in
02:35 9.1 °F 8.1 °F 1020.2 in Calm     93 % 0.0 in
02:40 9.1 °F 8.0 °F 1020.2 in Calm     93 % 0.0 in
02:45 9.0 °F 7.9 °F 1020.2 in Calm     93 % 0.0 in
02:50 8.9 °F 7.8 °F 1020.2 in Calm     93 % 0.0 in
02:55 8.8 °F 7.9 °F 1020.2 in Calm     94 % 0.0 in
03:00 8.8 °F 7.9 °F 1020.2 in Calm     94 % 0.0 in
03:05 8.7 °F 7.7 °F 1020.2 in Calm     93 % 0.0 in
03:10 8.6 °F 7.7 °F 1020.2 in Calm     94 % 0.0 in
03:15 8.6 °F 7.5 °F 1020.2 in Calm     93 % 0.0 in
03:20 8.4 °F 7.3 °F 1020.2 in Calm     93 % 0.0 in
03:25 8.2 °F 7.2 °F 1020.2 in Calm     93 % 0.0 in
03:30 8.2 °F 7.3 °F 1020.2 in Calm     94 % 0.0 in
03:35 8.1 °F 7.2 °F 1020.2 in Calm     94 % 0.0 in
03:40 8.1 °F 7.2 °F 1020.2 in Calm     94 % 0.0 in
03:45 8.0 °F 7.1 °F 1020.2 in Calm     94 % 0.0 in
03:50 7.9 °F 7.0 °F 1020.2 in Calm     94 % 0.0 in
03:55 7.8 °F 6.9 °F 1020.2 in Calm     94 % 0.0 in
04:00 7.8 °F 6.9 °F 1020.2 in Calm     94 % 0.0 in
04:05 7.8 °F 6.9 °F 1020.2 in Calm     94 % 0.0 in
04:10 7.7 °F 6.8 °F 1020.2 in Calm     94 % 0.0 in
04:15 7.6 °F 6.9 °F 1020.2 in Calm     95 % 0.0 in
04:20 7.6 °F 6.8 °F 1020.2 in Calm     95 % 0.0 in
04:25 7.6 °F 6.8 °F 1020.2 in Calm     95 % 0.0 in
04:30 7.6 °F 6.8 °F 1020.2 in Calm     95 % 0.0 in
04:35 7.6 °F 6.9 °F 1020.2 in Calm     95 % 0.0 in
04:40 7.7 °F 6.9 °F 1020.2 in Calm     95 % 0.0 in
04:45 7.8 °F 7.2 °F 1020.2 in Calm     96 % 0.0 in
04:50 7.8 °F 7.2 °F 1020.2 in Calm     96 % 0.0 in
04:55 7.8 °F 7.2 °F 1020.2 in Calm     96 % 0.0 in
05:00 7.8 °F 7.2 °F 1020.2 in Calm     96 % 0.0 in
05:05 7.9 °F 7.3 °F 1020.2 in Calm     96 % 0.0 in
05:10 7.9 °F 7.3 °F 1020.2 in Calm     96 % 0.0 in
05:15 7.9 °F 7.3 °F 1020.2 in Calm     96 % 0.0 in
05:20 7.9 °F 7.3 °F 1020.2 in Calm     96 % 0.0 in
05:25 7.9 °F 7.3 °F 1020.2 in Calm     96 % 0.0 in
05:30 7.9 °F 7.3 °F 1020.2 in Calm     96 % 0.0 in
05:35 7.9 °F 7.3 °F 1020.2 in Calm     96 % 0.0 in
05:40 7.9 °F 7.3 °F 1020.2 in Calm     96 % 0.0 in
05:45 8.1 °F 7.4 °F 1019.9 in Calm     96 % 0.0 in
05:50 8.1 °F 7.5 °F 1020.2 in Calm     96 % 0.0 in
05:55 8.1 °F 7.5 °F 1020.2 in Calm     96 % 0.0 in
06:00 8.1 °F 7.5 °F 1019.9 in Calm     96 % 0.0 in
06:05 8.1 °F 7.5 °F 1020.2 in Calm     96 % 0.0 in
06:10 8.2 °F 7.6 °F 1020.2 in Calm     96 % 0.0 in
06:15 8.3 °F 7.7 °F 1019.9 in Calm     96 % 0.0 in
06:20 8.5 °F 8.1 °F 1020.2 in Calm     97 % 0.0 in
06:25 8.7 °F 8.3 °F 1020.2 in Calm     97 % 0.0 in
06:30 9.1 °F 8.7 °F 1019.9 in Calm     97 % 0.0 in
06:35 9.4 °F 8.9 °F 1019.9 in Calm     97 % 0.0 in
06:40 9.7 °F 9.3 °F 1019.9 in Calm     97 % 0.0 in
06:45 10.1 °F 9.7 °F 1019.9 in Calm     97 % 0.0 in
06:50 10.5 °F 10.2 °F 1019.9 in Calm     98 % 0.0 in
06:55 10.8 °F 10.6 °F 1019.9 in Calm     98 % 0.0 in
07:00 11.1 °F 10.8 °F 1019.9 in Calm     98 % 0.0 in
07:05 11.3 °F 11.0 °F 1019.9 in Calm     98 % 0.0 in
07:10 11.4 °F 11.2 °F 1019.9 in Calm   1.6 mph 98 % 0.0 in
07:15 11.6 °F 11.3 °F 1019.5 in Calm   1.6 mph 98 % 0.0 in
07:20 11.7 °F 11.4 °F 1019.9 in Calm     98 % 0.0 in
07:25 11.8 °F 11.5 °F 1019.9 in Calm     98 % 0.0 in
07:30 11.8 °F 11.4 °F 1019.9 in Calm     97 % 0.0 in
07:35 11.8 °F 11.4 °F 1019.5 in Calm     97 % 0.0 in
07:40 11.9 °F 11.4 °F 1019.5 in Calm     97 % 0.0 in
07:45 11.9 °F 11.5 °F 1019.5 in Calm     97 % 0.0 in
07:50 11.9 °F 11.5 °F 1019.5 in Calm   3.2 mph 97 % 0.0 in
07:55 11.9 °F 11.3 °F 1019.5 in Calm   3.2 mph 96 % 0.0 in
08:00 11.9 °F 11.3 °F 1019.5 in Calm     96 % 0.0 in
08:05 12.0 °F 11.4 °F 1019.5 in Calm   1.6 mph 96 % 0.0 in
08:10 12.1 °F 11.4 °F 1019.5 in Calm   1.6 mph 96 % 0.0 in
08:15 12.1 °F 11.5 °F 1019.5 in Calm     96 % 0.0 in
08:20 12.2 °F 11.6 °F 1019.5 in Calm     96 % 0.0 in
08:25 12.3 °F 11.7 °F 1019.5 in Calm     96 % 0.0 in
08:30 12.4 °F 11.8 °F 1019.5 in Calm     96 % 0.0 in
08:35 12.6 °F 11.9 °F 1019.5 in Calm   4.8 mph 96 % 0.0 in
08:40 12.7 °F 11.9 °F 1019.5 in Calm   4.8 mph 95 % 0.0 in
08:45 12.8 °F 12.0 °F 1019.5 in Calm     95 % 0.0 in
08:50 12.8 °F 12.1 °F 1019.5 in Calm     95 % 0.0 in
08:55 13.1 °F 12.1 °F 1019.5 in Calm   1.6 mph 94 % 0.0 in
09:00 13.3 °F 12.3 °F 1019.5 in Calm   1.6 mph 94 % 0.0 in
09:05 13.5 °F 12.4 °F 1019.5 in Calm   1.6 mph 93 % 0.0 in
09:10 13.8 °F 12.6 °F 1019.5 in Calm     92 % 0.0 in
09:15 14.2 °F 12.6 °F 1019.5 in Calm   3.2 mph 90 % 0.0 in
09:20 14.3 °F 12.3 °F 1019.5 in Calm   4.8 mph 88 % 0.0 in
09:25 14.4 °F 12.4 °F 1019.5 in Calm   4.8 mph 88 % 0.0 in
09:30 14.6 °F 12.4 °F 1019.5 in WNW 1.6 mph 6.4 mph 87 % 0.0 in
09:35 14.6 °F 12.7 °F 1019.5 in Calm   6.4 mph 88 % 0.0 in
09:40 14.8 °F 12.9 °F 1019.5 in Calm     88 % 0.0 in
09:45 15.2 °F 13.0 °F 1019.5 in Calm     87 % 0.0 in
09:50 15.4 °F 12.9 °F 1019.5 in Calm     85 % 0.0 in
09:55 15.7 °F 12.8 °F 1019.5 in Calm   4.8 mph 83 % 0.0 in
10:00 15.9 °F 13.2 °F 1019.5 in Calm   4.8 mph 84 % 0.0 in
10:05 16.3 °F 12.8 °F 1019.5 in WNW 1.6 mph 8.0 mph 80 % 0.0 in
10:10 16.4 °F 13.0 °F 1019.5 in Calm   8.0 mph 80 % 0.0 in
10:15 16.7 °F 13.0 °F 1019.5 in Calm   4.8 mph 79 % 0.0 in
10:20 16.9 °F 13.2 °F 1019.5 in Calm   4.8 mph 79 % 0.0 in
10:25 17.2 °F 13.6 °F 1019.2 in Calm   6.4 mph 79 % 0.0 in
10:30 17.6 °F 13.3 °F 1019.2 in Calm   6.4 mph 76 % 0.0 in
10:35 17.8 °F 13.5 °F 1019.2 in Calm   6.4 mph 76 % 0.0 in
10:40 17.9 °F 13.1 °F 1019.2 in Calm   3.2 mph 73 % 0.0 in
10:45 18.2 °F 12.6 °F 1019.2 in WNW 1.6 mph 6.4 mph 70 % 0.0 in
10:50 18.4 °F 13.3 °F 1019.2 in Calm   6.4 mph 72 % 0.0 in
10:55 18.7 °F 12.7 °F 1019.2 in Calm   4.8 mph 68 % 0.0 in
11:00 18.8 °F 12.9 °F 1019.2 in Calm   4.8 mph 69 % 0.0 in
11:05 18.7 °F 12.9 °F 1019.2 in Calm   6.4 mph 69 % 0.0 in
11:10 18.4 °F 12.7 °F 1019.2 in North 1.6 mph 8.0 mph 69 % 0.0 in
11:15 18.4 °F 13.1 °F 1019.2 in Calm   8.0 mph 71 % 0.0 in
11:20 18.7 °F 13.1 °F 1019.2 in Calm   8.0 mph 70 % 0.0 in
11:25 18.9 °F 12.9 °F 1019.2 in Calm   6.4 mph 68 % 0.0 in
11:30 19.0 °F 13.2 °F 1019.2 in Calm   1.6 mph 69 % 0.0 in
11:35 18.9 °F 13.3 °F 1018.8 in Calm   3.2 mph 70 % 0.0 in
11:40 19.0 °F 12.9 °F 1018.8 in Calm   4.8 mph 68 % 0.0 in
11:45 19.1 °F 12.1 °F 1018.8 in WNW 1.6 mph 11.3 mph 64 % 0.0 in
11:50 18.9 °F 12.4 °F 1018.8 in WNW 1.6 mph 11.3 mph 66 % 0.0 in
11:55 18.9 °F 12.7 °F 1018.8 in NW 1.6 mph 11.3 mph 67 % 0.0 in
12:00 19.3 °F 13.0 °F 1018.8 in NW 1.6 mph 8.0 mph 67 % 0.0 in
12:05 19.6 °F 12.8 °F 1018.8 in NNW 1.6 mph 8.0 mph 65 % 0.0 in
12:10 19.7 °F 12.9 °F 1018.8 in Calm   8.0 mph 65 % 0.0 in
12:15 19.6 °F 12.6 °F 1018.8 in NW 1.6 mph 6.4 mph 64 % 0.0 in
12:20 19.1 °F 12.1 °F 1018.8 in NNW 1.6 mph 6.4 mph 64 % 0.0 in
12:25 18.6 °F 12.6 °F 1018.8 in Calm   6.4 mph 68 % 0.0 in
12:30 18.4 °F 12.4 °F 1018.8 in Calm   1.6 mph 68 % 0.0 in
12:35 18.3 °F 12.3 °F 1018.8 in Calm   3.2 mph 68 % 0.0 in
12:40 18.2 °F 12.0 °F 1018.5 in Calm   3.2 mph 67 % 0.0 in
12:45 18.2 °F 12.4 °F 1018.5 in WNW 1.6 mph 6.4 mph 69 % 0.0 in
12:50 18.3 °F 12.3 °F 1018.5 in Calm   9.7 mph 68 % 0.0 in
12:55 18.5 °F 12.3 °F 1018.5 in NW 1.6 mph 14.5 mph 67 % 0.0 in
13:00 18.8 °F 11.6 °F 1018.5 in NNW 3.2 mph 14.5 mph 63 % 0.0 in
13:05 19.1 °F 11.9 °F 1018.5 in North 1.6 mph 9.7 mph 63 % 0.0 in
13:10 19.4 °F 12.7 °F 1018.5 in North 1.6 mph 8.0 mph 65 % 0.0 in
13:15 19.8 °F 12.1 °F 1018.5 in North 1.6 mph 8.0 mph 61 % 0.0 in
13:20 19.8 °F 12.8 °F 1018.5 in Calm   8.0 mph 64 % 0.0 in
13:25 19.7 °F 12.2 °F 1018.5 in Calm   6.4 mph 62 % 0.0 in
13:30 19.5 °F 12.0 °F 1018.5 in Calm   3.2 mph 62 % 0.0 in
13:35 19.4 °F 12.4 °F 1018.5 in Calm   3.2 mph 64 % 0.0 in
13:40 19.4 °F 12.4 °F 1018.2 in Calm   1.6 mph 64 % 0.0 in
13:45 19.5 °F 12.5 °F 1018.2 in Calm   6.4 mph 64 % 0.0 in
13:50 19.6 °F 12.6 °F 1018.2 in Calm   6.4 mph 64 % 0.0 in
13:55 19.9 °F 12.9 °F 1018.2 in Calm   6.4 mph 64 % 0.0 in
14:00 20.3 °F 13.2 °F 1018.2 in Calm   8.0 mph 64 % 0.0 in
14:05 20.3 °F 13.0 °F 1018.2 in Calm   8.0 mph 63 % 0.0 in
14:10 20.1 °F 13.1 °F 1018.2 in NNW 1.6 mph 8.0 mph 64 % 0.0 in
14:15 19.8 °F 13.1 °F 1018.2 in North 3.2 mph 11.3 mph 65 % 0.0 in
14:20 19.9 °F 12.9 °F 1017.8 in North 1.6 mph 11.3 mph 64 % 0.0 in
14:25 20.2 °F 12.7 °F 1017.8 in North 1.6 mph 8.0 mph 62 % 0.0 in
14:30 20.4 °F 13.1 °F 1017.8 in Calm   6.4 mph 63 % 0.0 in
14:35 20.7 °F 13.1 °F 1017.8 in NNW 1.6 mph 6.4 mph 62 % 0.0 in
14:40 20.8 °F 13.0 °F 1017.8 in NNW 3.2 mph 9.7 mph 61 % 0.0 in
14:45 20.5 °F 13.2 °F 1017.8 in NW 3.2 mph 11.3 mph 63 % 0.0 in
14:50 20.3 °F 13.1 °F 1017.8 in North 3.2 mph 17.7 mph 63 % 0.0 in
14:55 20.2 °F 13.4 °F 1017.8 in NNE 1.6 mph 17.7 mph 65 % 0.0 in
15:00 19.6 °F 12.6 °F 1017.8 in North 1.6 mph 8.0 mph 64 % 0.0 in
15:05 19.1 °F 12.8 °F 1017.8 in North 1.6 mph 8.0 mph 67 % 0.0 in
15:10 18.7 °F 12.9 °F 1017.8 in Calm   4.8 mph 69 % 0.0 in
15:15 18.6 °F 13.0 °F 1017.8 in Calm   4.8 mph 70 % 0.0 in
15:20 18.7 °F 12.7 °F 1017.8 in NNE 1.6 mph 6.4 mph 68 % 0.0 in
15:25 18.9 °F 13.1 °F 1017.8 in NNE 1.6 mph 6.4 mph 69 % 0.0 in
15:30 19.2 °F 13.2 °F 1017.8 in NNE 1.6 mph 6.4 mph 68 % 0.0 in
15:35 19.5 °F 13.0 °F 1017.8 in NNE 1.6 mph 6.4 mph 66 % 0.0 in
15:40 19.6 °F 13.3 °F 1017.8 in Calm   6.4 mph 67 % 0.0 in
15:45 19.7 °F 13.7 °F 1017.5 in North 1.6 mph 11.3 mph 68 % 0.0 in
15:50 20.0 °F 13.4 °F 1017.5 in Calm   11.3 mph 66 % 0.0 in
15:55 20.3 °F 13.7 °F 1017.5 in Calm   1.6 mph 66 % 0.0 in
16:00 20.3 °F 13.5 °F 1017.5 in NNE 1.6 mph 6.4 mph 65 % 0.0 in
16:05 20.2 °F 13.2 °F 1017.5 in NNE 1.6 mph 6.4 mph 64 % 0.0 in
16:10 20.4 °F 12.6 °F 1017.5 in Calm   4.8 mph 61 % 0.0 in
16:15 20.4 °F 12.6 °F 1017.5 in Calm   4.8 mph 61 % 0.0 in
16:20 20.1 °F 12.3 °F 1017.5 in Calm   4.8 mph 61 % 0.0 in
16:25 19.7 °F 12.2 °F 1017.2 in NNW 1.6 mph 4.8 mph 62 % 0.0 in
16:30 19.4 °F 12.9 °F 1017.2 in Calm   4.8 mph 66 % 0.0 in
16:35 19.7 °F 13.1 °F 1017.2 in NNW 1.6 mph 6.4 mph 66 % 0.0 in
16:40 20.2 °F 13.4 °F 1017.2 in North 1.6 mph 6.4 mph 65 % 0.0 in
16:50 20.9 °F 13.1 °F 1017.2 in North 3.2 mph 11.3 mph 61 % 0.0 in
16:55 20.9 °F 13.6 °F 1017.2 in NNW 1.6 mph 11.3 mph 63 % 0.0 in
17:00 21.1 °F 12.4 °F 1017.2 in NNW 3.2 mph 8.0 mph 58 % 0.0 in
17:05 21.0 °F 12.9 °F 1017.2 in NNE 1.6 mph 8.0 mph 60 % 0.0 in
17:10 21.1 °F 13.1 °F 1017.2 in NNW 1.6 mph 9.7 mph 60 % 0.0 in
17:15 21.0 °F 12.7 °F 1017.2 in NNW 4.8 mph 11.3 mph 59 % 0.0 in
17:20 20.7 °F 12.9 °F 1017.2 in NNW 1.6 mph 11.3 mph 61 % 0.0 in
17:25 20.2 °F 13.2 °F 1017.2 in NNW 3.2 mph 12.9 mph 64 % 0.0 in
17:30 19.8 °F 14.4 °F 1017.2 in NNW 3.2 mph 12.9 mph 71 % 0.5 in
17:35 19.2 °F 14.9 °F 1017.2 in Calm   9.7 mph 76 % 1.5 in
17:40 18.5 °F 15.2 °F 1017.2 in Calm   4.8 mph 81 % 1.5 in
17:45 17.8 °F 14.7 °F 1017.2 in Calm   4.8 mph 82 % 1.5 in
17:50 17.3 °F 14.4 °F 1017.2 in Calm     83 % 1.5 in
17:55 16.9 °F 14.3 °F 1017.2 in Calm     85 % 1.5 in
18:00 16.6 °F 14.4 °F 1017.2 in Calm     87 % 1.5 in
18:05 16.4 °F 14.6 °F 1016.8 in Calm     89 % 1.5 in
18:15 16.2 °F 14.6 °F 1016.8 in Calm   1.6 mph 90 % 1.5 in
18:20 16.2 °F 14.5 °F 1016.8 in Calm   1.6 mph 90 % 1.5 in
18:25 16.1 °F 14.7 °F 1016.8 in Calm     91 % 1.5 in
18:30 16.1 °F 14.6 °F 1016.8 in Calm     91 % 1.3 in
18:35 15.9 °F 14.1 °F 1016.8 in Calm   4.8 mph 89 % 0.3 in
18:40 15.8 °F 13.8 °F 1016.8 in Calm   4.8 mph 88 % 0.0 in
18:45 15.6 °F 13.4 °F 1016.8 in Calm   1.6 mph 87 % 0.0 in
18:50 15.5 °F 13.2 °F 1016.8 in Calm   1.6 mph 86 % 0.0 in
18:55 15.4 °F 13.3 °F 1016.8 in Calm     87 % 0.0 in
19:00 15.5 °F 13.5 °F 1016.5 in Calm   1.6 mph 88 % 0.0 in
19:05 15.8 °F 13.4 °F 1016.5 in Calm   1.6 mph 86 % 0.0 in
19:10 16.1 °F 13.7 °F 1016.5 in Calm   1.6 mph 86 % 0.0 in
19:15 16.3 °F 13.4 °F 1016.5 in Calm   1.6 mph 83 % 0.0 in
19:20 16.4 °F 13.6 °F 1016.5 in Calm   1.6 mph 83 % 0.0 in
19:25 16.4 °F 13.6 °F 1016.5 in Calm   1.6 mph 83 % 0.0 in
19:30 16.4 °F 13.5 °F 1016.5 in Calm   1.6 mph 83 % 0.0 in
19:35 16.4 °F 13.7 °F 1016.5 in Calm   1.6 mph 84 % 0.0 in
19:40 16.5 °F 13.8 °F 1016.5 in Calm   6.4 mph 84 % 0.0 in
19:45 16.8 °F 14.2 °F 1016.5 in Calm   6.4 mph 85 % 0.0 in
19:50 17.1 °F 14.2 °F 1016.5 in Calm   3.2 mph 83 % 0.0 in
19:55 17.4 °F 13.9 °F 1016.5 in North 1.6 mph 8.0 mph 80 % 0.0 in
20:00 17.5 °F 14.2 °F 1016.5 in Calm   8.0 mph 81 % 0.0 in
20:05 17.6 °F 14.1 °F 1016.5 in NNE 1.6 mph 8.0 mph 80 % 0.0 in
20:10 17.7 °F 14.1 °F 1016.5 in Calm   8.0 mph 79 % 0.0 in
20:15 17.8 °F 14.3 °F 1016.5 in Calm   4.8 mph 80 % 0.0 in
20:20 18.0 °F 14.1 °F 1016.5 in Calm   6.4 mph 78 % 0.0 in
20:25 18.0 °F 14.1 °F 1016.5 in Calm   6.4 mph 78 % 0.0 in
20:30 17.9 °F 14.1 °F 1016.5 in North 1.6 mph 4.8 mph 78 % 0.0 in
20:35 17.9 °F 13.8 °F 1016.5 in North 1.6 mph 4.8 mph 77 % 0.0 in
20:40 17.9 °F 14.2 °F 1016.5 in Calm   6.4 mph 79 % 0.0 in
20:45 17.9 °F 14.2 °F 1016.5 in Calm   6.4 mph 79 % 0.0 in
20:50 17.8 °F 14.3 °F 1016.5 in Calm   4.8 mph 80 % 0.0 in
20:55 17.7 °F 14.4 °F 1016.5 in Calm   4.8 mph 81 % 0.0 in
21:00 17.6 °F 14.3 °F 1016.5 in Calm   4.8 mph 81 % 0.0 in
21:05 17.4 °F 14.2 °F 1016.5 in Calm   4.8 mph 81 % 0.0 in
21:10 17.2 °F 13.9 °F 1016.5 in Calm   1.6 mph 81 % 0.0 in
21:15 17.1 °F 13.9 °F 1016.5 in Calm   1.6 mph 82 % 0.0 in
21:20 16.9 °F 13.8 °F 1016.5 in Calm   3.2 mph 82 % 0.0 in
21:25 16.8 °F 13.9 °F 1016.5 in Calm   3.2 mph 83 % 0.0 in
21:30 16.7 °F 13.8 °F 1016.5 in Calm   1.6 mph 83 % 0.0 in
21:35 16.6 °F 13.7 °F 1016.5 in Calm   4.8 mph 83 % 0.0 in
21:40 16.4 °F 13.7 °F 1016.5 in Calm   4.8 mph 84 % 0.0 in
21:45 16.3 °F 13.6 °F 1016.5 in Calm   1.6 mph 84 % 0.0 in
21:50 16.2 °F 13.7 °F 1016.5 in Calm   1.6 mph 85 % 0.0 in
21:55 16.1 °F 13.6 °F 1016.5 in Calm   1.6 mph 85 % 0.0 in
22:00 16.0 °F 13.5 °F 1016.5 in Calm     85 % 0.0 in
22:05 15.9 °F 13.6 °F 1016.5 in Calm     86 % 0.0 in
22:10 15.8 °F 13.4 °F 1016.5 in Calm     86 % 0.0 in
22:15 15.7 °F 13.3 °F 1016.5 in Calm   1.6 mph 86 % 0.0 in
22:20 15.6 °F 13.4 °F 1016.5 in Calm   1.6 mph 87 % 0.0 in
22:25 15.4 °F 13.3 °F 1016.5 in Calm   1.6 mph 87 % 0.0 in
22:30 15.4 °F 13.4 °F 1016.5 in Calm   1.6 mph 88 % 0.0 in
22:35 15.3 °F 13.3 °F 1016.5 in Calm   1.6 mph 88 % 0.0 in
22:40 15.3 °F 13.5 °F 1016.5 in Calm     89 % 0.0 in
22:45 15.2 °F 13.4 °F 1016.5 in Calm     89 % 0.0 in
22:50 15.2 °F 13.2 °F 1016.5 in Calm     88 % 0.0 in
22:55 15.1 °F 13.1 °F 1016.5 in Calm     88 % 0.0 in
23:00 15.0 °F 13.2 °F 1016.5 in Calm     89 % 0.0 in
23:05 14.9 °F 13.1 °F 1016.5 in Calm     89 % 0.0 in
23:10 14.8 °F 13.0 °F 1016.8 in Calm     89 % 0.0 in
23:15 14.6 °F 13.0 °F 1016.8 in Calm     90 % 0.0 in
23:20 14.5 °F 12.9 °F 1016.8 in Calm     90 % 0.0 in
23:25 14.4 °F 12.8 °F 1016.8 in Calm     90 % 0.0 in
23:30 14.2 °F 12.6 °F 1016.8 in Calm     90 % 0.0 in
23:35 14.1 °F 12.7 °F 1016.5 in Calm     91 % 0.0 in
23:40 14.0 °F 12.4 °F 1016.5 in Calm     90 % 0.0 in
23:45 13.8 °F 12.2 °F 1016.5 in Calm     90 % 0.0 in
23:50 13.7 °F 12.2 °F 1016.5 in Calm     91 % 0.0 in
23:55 13.6 °F 12.1 °F 1016.5 in Calm     91 % 0.0 in
Esan sääasema
Terveisin Weather Underground - 3.75 mb

Alkuperäinen skripti  Jim McMurry - jmcmurry@mwt.net Sovitettu myös templatelle  Wim van der Kuil - Leuven-Template.eu

Laitteet joita käytämme:

Sääasema
Davis VP2

Sääasemaohjelma
Cumulus

Sääaseman tietokone
Asus EeePC

Palveluntarjoaja
Suncomet

Davis VP2

Cumulus

Asus EeePC

Suncomet